Time;durP1;ratioP1;P1;durP2;ratioP2;P2;SDS_P1;SDS_P2;PMS_P1;PMS_P2;Temp;Humidity;BMP_temperature;BMP_pressure;BME280_temperature;BME280_humidity;BME280_pressure;Samples;Min_cycle;Max_cycle;Signal;HPM_P1;HPM_P2
2022/10/19 00:02:21;;;;;;;10.90;8.43;;;;;;;12.88;72.46;98170.80;1824774;78;20991;-60
2022/10/19 00:04:48;;;;;;;17.77;8.53;;;;;;;12.86;72.95;98169.74;1824822;78;20967;-60
2022/10/19 00:07:15;;;;;;;18.15;8.10;;;;;;;12.84;73.21;98166.56;1824817;78;20888;-61
2022/10/19 00:09:43;;;;;;;17.75;9.03;;;;;;;12.82;73.42;98158.55;1824730;78;20911;-60
2022/10/19 00:12:12;;;;;;;11.53;8.13;;;;;;;12.79;73.77;98157.80;1824940;78;21856;-61
2022/10/19 00:14:38;;;;;;;15.00;8.33;;;;;;;12.78;74.11;98161.59;1824744;78;20927;-59
2022/10/19 00:17:05;;;;;;;14.55;9.00;;;;;;;12.76;74.29;98157.08;1824770;78;20987;-61
2022/10/19 00:19:32;;;;;;;15.40;8.83;;;;;;;12.75;74.60;98167.56;1824669;78;20860;-62
2022/10/19 00:22:00;;;;;;;11.45;9.00;;;;;;;12.71;74.98;98165.23;1824725;78;20970;-62
2022/10/19 00:24:26;;;;;;;13.38;9.53;;;;;;;12.69;75.06;98172.27;1825021;78;21364;-62
2022/10/19 00:26:54;;;;;;;12.45;8.80;;;;;;;12.67;75.40;98168.28;1824731;78;20884;-62
2022/10/19 00:29:21;;;;;;;14.45;8.80;;;;;;;12.65;75.50;98165.07;1824777;78;20904;-61
2022/10/19 00:31:50;;;;;;;17.10;9.18;;;;;;;12.63;75.75;98169.41;1824668;78;20980;-62
2022/10/19 00:34:17;;;;;;;13.58;9.00;;;;;;;12.61;76.19;98173.48;1824701;78;20966;-63
2022/10/19 00:36:44;;;;;;;12.88;9.15;;;;;;;12.61;76.35;98174.83;1824793;78;21111;-60
2022/10/19 00:39:13;;;;;;;13.08;9.45;;;;;;;12.62;76.54;98173.75;1824635;78;20916;-61
2022/10/19 00:41:42;;;;;;;14.10;9.75;;;;;;;12.61;76.95;98174.83;1824683;78;21343;-60
2022/10/19 00:44:17;;;;;;;12.85;9.40;;;;;;;12.60;77.22;98171.34;1824723;78;20955;-60
2022/10/19 00:46:47;;;;;;;14.55;9.98;;;;;;;12.58;77.65;98167.36;1825014;78;20928;-62
2022/10/19 00:49:21;;;;;;;15.32;10.20;;;;;;;12.58;77.99;98166.02;1824696;78;21245;-62
2022/10/19 00:51:58;;;;;;;11.80;9.95;;;;;;;12.54;78.36;98159.11;1825152;78;20923;-62
2022/10/19 00:54:25;;;;;;;15.85;9.55;;;;;;;12.53;79.08;98163.45;1823762;78;20911;-63
2022/10/19 00:56:54;;;;;;;13.00;9.88;;;;;;;12.53;79.45;98158.08;1824662;78;20923;-62
2022/10/19 00:59:21;;;;;;;14.90;10.32;;;;;;;12.51;79.81;98147.61;1824772;78;20888;-61
2022/10/19 01:01:48;;;;;;;17.37;10.72;;;;;;;12.50;80.11;98144.69;1824665;78;21103;-59
2022/10/19 01:04:15;;;;;;;15.43;10.72;;;;;;;12.53;80.54;98137.93;1797248;78;20850;-60
2022/10/19 01:06:43;;;;;;;17.17;9.63;;;;;;;12.54;81.23;98144.88;1824878;78;21399;-59
2022/10/19 01:09:09;;;;;;;16.80;10.80;;;;;;;12.54;81.43;98134.94;1824759;78;20932;-59
2022/10/19 01:12:08;;;;;;;15.75;11.65;;;;;;;12.56;81.92;98132.73;1824686;78;20983;-60
2022/10/19 01:15:10;;;;;;;15.98;10.70;;;;;;;12.55;82.17;98133.85;1824797;78;21678;-61
2022/10/19 01:17:59;;;;;;;15.85;10.85;;;;;;;12.53;82.53;98137.93;1824275;78;20974;-61
2022/10/19 01:20:40;;;;;;;17.30;10.55;;;;;;;12.51;82.92;98134.72;1824827;78;21324;-60
2022/10/19 01:23:30;;;;;;;15.85;10.28;;;;;;;12.48;83.36;98150.91;1824783;78;20895;-62
2022/10/19 01:26:29;;;;;;;15.35;10.40;;;;;;;12.47;83.88;98145.28;1791654;78;21442;-60
2022/10/19 01:29:33;;;;;;;19.50;10.93;;;;;;;12.48;84.40;98140.71;1823895;78;21139;-60
2022/10/19 01:32:13;;;;;;;14.75;10.65;;;;;;;12.44;85.02;98135.66;1824593;78;21474;-59
2022/10/19 01:34:52;;;;;;;16.17;10.70;;;;;;;12.40;85.37;98138.70;1824779;78;21050;-59
2022/10/19 01:37:30;;;;;;;11.03;9.55;;;;;;;12.36;85.96;98146.58;1823753;78;20924;-61
2022/10/19 01:40:02;;;;;;;13.25;10.05;;;;;;;12.32;86.27;98162.48;1824628;78;20836;-64
2022/10/19 01:42:49;;;;;;;14.55;10.70;;;;;;;12.31;86.83;98162.78;1824780;78;21119;-61
2022/10/19 01:45:40;;;;;;;17.00;10.80;;;;;;;12.29;87.10;98168.43;1824703;78;21371;-60
2022/10/19 01:48:15;;;;;;;16.07;10.53;;;;;;;12.29;87.87;98171.12;1824668;78;21419;-61
2022/10/19 01:50:52;;;;;;;18.00;10.15;;;;;;;12.29;88.67;98162.28;1824708;78;21423;-58
2022/10/19 01:53:18;;;;;;;13.58;9.15;;;;;;;12.25;89.97;98158.05;1824927;78;23978;-58
2022/10/19 01:55:45;;;;;;;13.40;9.95;;;;;;;12.21;89.91;98159.73;1824756;78;21198;-58
2022/10/19 01:58:15;;;;;;;12.68;9.28;;;;;;;12.19;90.98;98157.90;1824548;78;20876;-59
2022/10/19 02:00:43;;;;;;;13.22;9.15;;;;;;;12.18;91.74;98166.23;1797864;78;20896;-60
2022/10/19 02:03:09;;;;;;;9.30;7.95;;;;;;;12.18;92.61;98161.66;1824921;78;21466;-59
2022/10/19 02:05:36;;;;;;;11.60;7.53;;;;;;;12.19;93.01;98159.78;1824772;78;20907;-59
2022/10/19 02:08:11;;;;;;;9.35;7.12;;;;;;;12.18;93.88;98163.55;1824858;78;22000;-59
2022/10/19 02:10:40;;;;;;;10.73;7.87;;;;;;;12.15;94.78;98167.61;1824853;78;20923;-62
2022/10/19 02:13:08;;;;;;;9.43;6.80;;;;;;;12.15;95.56;98171.64;1824935;78;21725;-62
2022/10/19 02:15:37;;;;;;;10.58;6.30;;;;;;;12.15;95.56;98172.21;1824629;78;20888;-63
2022/10/19 02:18:05;;;;;;;12.07;6.95;;;;;;;12.16;95.89;98182.65;1824638;78;20883;-61
2022/10/19 02:20:34;;;;;;;9.73;5.97;;;;;;;12.15;96.66;98185.64;1824745;78;21115;-63
2022/10/19 02:23:04;;;;;;;6.87;5.72;;;;;;;12.13;97.06;98188.59;1824654;78;20883;-60
2022/10/19 02:25:32;;;;;;;8.63;5.60;;;;;;;12.09;97.73;98194.31;1824624;78;20908;-61
2022/10/19 02:28:00;;;;;;;7.28;5.00;;;;;;;12.06;97.66;98199.49;1824675;78;20888;-61
2022/10/19 02:30:26;;;;;;;7.03;5.20;;;;;;;12.04;97.73;98198.42;1824778;78;21400;-62
2022/10/19 02:32:53;;;;;;;7.10;4.70;;;;;;;12.03;98.46;98191.48;1824630;78;21236;-62
2022/10/19 02:35:21;;;;;;;5.70;4.42;;;;;;;12.02;98.79;98189.88;1797253;78;21011;-62
2022/10/19 02:37:47;;;;;;;6.00;3.50;;;;;;;12.02;99.35;98204.64;1824590;78;20923;-63
2022/10/19 02:40:15;;;;;;;7.85;3.95;;;;;;;11.97;99.50;98206.06;1817247;78;20896;-61
2022/10/19 02:42:57;;;;;;;3.85;3.20;;;;;;;11.92;99.61;98208.02;1781644;79;21416;-61
2022/10/19 02:45:31;;;;;;;4.53;3.27;;;;;;;11.88;99.99;98207.83;1812957;79;21880;-61
2022/10/19 02:48:05;;;;;;;3.42;3.02;;;;;;;11.84;100.00;98217.56;1812658;79;20968;-62
2022/10/19 02:50:33;;;;;;;6.20;2.62;;;;;;;11.83;100.00;98211.13;1812804;79;20917;-61
2022/10/19 02:53:00;;;;;;;3.95;2.77;;;;;;;11.81;100.00;98198.55;1812788;79;20971;-61
2022/10/19 02:55:28;;;;;;;3.20;2.30;;;;;;;11.78;100.00;98207.98;1812837;79;20872;-61
2022/10/19 02:57:56;;;;;;;3.62;2.37;;;;;;;11.76;100.00;98201.30;1812661;78;21100;-62
2022/10/19 03:00:22;;;;;;;2.47;1.90;;;;;;;11.73;100.00;98210.73;1812733;79;21435;-63
2022/10/19 03:02:49;;;;;;;3.77;2.10;;;;;;;11.72;100.00;98217.20;1812804;79;20968;-62
2022/10/19 03:05:16;;;;;;;3.52;1.45;;;;;;;11.71;100.00;98222.84;1812788;79;20931;-62
2022/10/19 03:07:43;;;;;;;2.62;1.70;;;;;;;11.68;100.00;98218.89;1812912;79;20845;-62
2022/10/19 03:10:10;;;;;;;3.55;1.80;;;;;;;11.67;100.00;98219.93;1812685;79;21115;-62
2022/10/19 03:12:37;;;;;;;2.70;1.80;;;;;;;11.61;100.00;98226.47;1812732;79;21404;-60
2022/10/19 03:15:05;;;;;;;2.25;1.77;;;;;;;11.57;100.00;98222.22;1812887;79;21434;-62
2022/10/19 03:17:32;;;;;;;2.77;1.50;;;;;;;11.54;100.00;98235.43;1813035;79;21439;-62
2022/10/19 03:20:00;;;;;;;2.37;1.37;;;;;;;11.52;100.00;98245.63;1812714;79;20983;-62
2022/10/19 03:22:27;;;;;;;0.90;0.85;;;;;;;11.47;100.00;98237.11;1812667;79;21970;-63
2022/10/19 03:24:54;;;;;;;2.08;1.07;;;;;;;11.44;100.00;98245.76;1812621;79;20892;-62
2022/10/19 03:27:20;;;;;;;1.10;0.98;;;;;;;11.40;100.00;98234.56;1812746;79;20959;-62
2022/10/19 03:29:48;;;;;;;0.70;0.70;;;;;;;11.38;100.00;98233.48;1812744;79;21471;-62
2022/10/19 03:32:15;;;;;;;0.70;0.70;;;;;;;11.36;100.00;98240.22;1812797;79;20880;-60
2022/10/19 03:34:41;;;;;;;1.47;0.90;;;;;;;11.36;100.00;98242.91;1812663;79;21289;-61
2022/10/19 03:37:08;;;;;;;1.17;0.75;;;;;;;11.32;100.00;98240.02;1812773;79;20979;-61
2022/10/19 03:39:35;;;;;;;1.65;0.80;;;;;;;11.30;100.00;98245.41;1812563;78;20881;-62
2022/10/19 03:42:01;;;;;;;0.72;0.72;;;;;;;11.27;100.00;98244.64;1812770;78;20873;-60
2022/10/19 03:44:28;;;;;;;4.40;0.90;;;;;;;11.23;100.00;98247.65;1812686;78;20936;-61
2022/10/19 03:46:54;;;;;;;1.72;1.40;;;;;;;11.21;100.00;98246.58;1812748;79;21686;-61
2022/10/19 03:49:21;;;;;;;1.32;1.12;;;;;;;11.22;100.00;98245.50;1812595;79;20924;-62
2022/10/19 03:51:48;;;;;;;0.65;0.60;;;;;;;11.24;100.00;98245.20;1812642;79;20916;-61
2022/10/19 03:54:15;;;;;;;0.60;0.60;;;;;;;11.24;100.00;98245.20;1812624;79;20865;-61
2022/10/19 03:56:42;;;;;;;1.60;1.00;;;;;;;11.18;100.00;98238.33;1812670;79;20915;-61
2022/10/19 03:59:13;;;;;;;1.10;0.75;;;;;;;11.17;100.00;98241.55;1813043;78;20963;-61
2022/10/19 04:01:43;;;;;;;0.80;0.80;;;;;;;11.18;100.00;98243.16;1812851;79;20888;-61
2022/10/19 04:04:12;;;;;;;1.52;1.07;;;;;;;11.23;100.00;98244.97;1812642;79;20971;-62
2022/10/19 04:06:42;;;;;;;1.15;1.00;;;;;;;11.23;100.00;98239.61;1812916;79;20924;-61
2022/10/19 04:09:12;;;;;;;0.90;0.70;;;;;;;11.26;100.00;98245.74;1812679;79;20924;-60
2022/10/19 04:11:39;;;;;;;0.78;0.60;;;;;;;11.27;100.00;98245.44;1812910;79;21628;-61
2022/10/19 04:14:05;;;;;;;1.85;0.70;;;;;;;11.26;100.00;98243.06;1812570;79;20841;-63
2022/10/19 04:16:33;;;;;;;1.15;0.72;;;;;;;11.23;100.00;98246.31;1812734;79;20841;-61
2022/10/19 04:19:00;;;;;;;1.85;0.70;;;;;;;11.23;100.00;98240.95;1812587;79;20933;-62
2022/10/19 04:21:32;;;;;;;0.68;0.60;;;;;;;11.22;100.00;98252.20;1812758;79;20861;-60
2022/10/19 04:24:08;;;;;;;0.80;0.80;;;;;;;11.20;100.00;98253.05;1812632;79;21784;-62
2022/10/19 04:26:41;;;;;;;1.55;0.88;;;;;;;11.17;100.00;98247.44;1812567;79;20908;-63
2022/10/19 04:29:09;;;;;;;1.55;0.70;;;;;;;11.15;100.00;98241.58;1812640;78;21464;-63
2022/10/19 04:31:36;;;;;;;1.15;0.70;;;;;;;11.12;100.00;98242.14;1812662;79;20873;-60
2022/10/19 04:34:03;;;;;;;0.88;0.80;;;;;;;11.08;100.00;98235.23;1812636;79;20911;-61
2022/10/19 04:36:29;;;;;;;1.02;0.68;;;;;;;11.07;100.00;98232.84;1812723;79;21125;-60
2022/10/19 04:38:56;;;;;;;1.45;0.78;;;;;;;11.09;100.00;98232.02;1812518;78;20884;-60
2022/10/19 04:41:23;;;;;;;0.85;0.70;;;;;;;11.11;100.00;98228.50;1812752;78;21384;-61
2022/10/19 04:43:57;;;;;;;2.65;0.80;;;;;;;11.14;100.00;98235.41;1812669;79;21044;-62
2022/10/19 04:46:24;;;;;;;0.78;0.70;;;;;;;11.18;100.00;98236.98;1812748;78;20915;-61
2022/10/19 04:48:51;;;;;;;2.10;0.50;;;;;;;11.22;100.00;98238.80;1812581;79;21118;-60
2022/10/19 04:51:19;;;;;;;0.82;0.68;;;;;;;11.23;100.00;98229.69;1812499;79;20932;-60
2022/10/19 04:53:46;;;;;;;1.10;0.70;;;;;;;11.20;100.00;98242.85;1812702;79;20900;-61
2022/10/19 04:56:22;;;;;;;1.40;0.80;;;;;;;11.16;100.00;98232.45;1812771;79;21438;-61
2022/10/19 04:58:48;;;;;;;1.07;0.80;;;;;;;11.17;100.00;98236.72;1812593;79;21478;-62
2022/10/19 05:01:19;;;;;;;0.72;0.70;;;;;;;11.18;100.00;98232.97;1812775;79;21418;-60
2022/10/19 05:03:46;;;;;;;1.05;0.70;;;;;;;11.20;100.00;98226.77;1812514;78;20892;-62
2022/10/19 05:06:13;;;;;;;1.50;0.80;;;;;;;11.22;100.00;98220.56;1812645;78;21407;-62
2022/10/19 05:08:40;;;;;;;2.47;1.40;;;;;;;11.19;100.00;98226.53;1812378;78;21031;-61
2022/10/19 05:11:13;;;;;;;2.02;1.67;;;;;;;11.13;100.00;98226.32;1805681;79;21055;-62
2022/10/19 05:13:42;;;;;;;1.60;1.50;;;;;;;11.09;100.00;98232.02;1797979;78;21544;-61
2022/10/19 05:16:12;;;;;;;1.70;1.60;;;;;;;11.06;100.00;98231.23;1792685;78;21050;-60
2022/10/19 05:18:38;;;;;;;2.10;1.65;;;;;;;11.08;100.00;98223.70;1812305;78;20963;-61
2022/10/19 05:21:11;;;;;;;2.37;2.12;;;;;;;11.08;100.00;98227.72;1784823;80;21106;-60
2022/10/19 05:23:40;;;;;;;3.33;2.22;;;;;;;11.08;100.00;98223.16;1820436;78;21070;-59
2022/10/19 05:26:16;;;;;;;3.05;2.05;;;;;;;11.05;100.00;98224.27;1783630;80;21023;-59
2022/10/19 05:28:55;;;;;;;3.40;2.10;;;;;;;11.03;100.00;98223.23;1785222;80;20853;-59
2022/10/19 05:31:23;;;;;;;1.98;1.77;;;;;;;11.00;100.00;98221.91;1779819;80;20953;-61
2022/10/19 05:33:50;;;;;;;2.45;2.25;;;;;;;10.99;100.00;98220.34;1821282;78;20972;-61
2022/10/19 05:36:27;;;;;;;3.15;2.30;;;;;;;10.97;100.00;98222.48;1819619;78;21430;-60
2022/10/19 05:38:56;;;;;;;2.42;1.87;;;;;;;10.99;100.00;98220.34;1792241;78;21249;-62
2022/10/19 05:41:25;;;;;;;2.70;1.60;;;;;;;10.97;100.00;98226.50;1782612;80;21055;-60
2022/10/19 05:43:55;;;;;;;2.50;2.00;;;;;;;10.97;100.00;98233.20;1783943;80;21989;-60
2022/10/19 05:46:22;;;;;;;2.67;2.30;;;;;;;10.93;100.00;98224.14;1783283;80;21063;-60
2022/10/19 05:48:55;;;;;;;3.02;2.33;;;;;;;10.92;100.00;98227.92;1783091;79;21260;-58
2022/10/19 05:51:32;;;;;;;3.22;2.80;;;;;;;10.93;100.00;98234.86;1765027;80;21730;-60
2022/10/19 05:54:04;;;;;;;3.12;2.80;;;;;;;10.92;100.00;98233.83;1784712;80;20947;-59
2022/10/19 05:56:31;;;;;;;3.35;2.77;;;;;;;10.89;100.00;98237.06;1785076;79;21416;-61
2022/10/19 05:58:59;;;;;;;3.40;3.05;;;;;;;10.89;100.00;98235.19;1791929;79;21052;-60
2022/10/19 06:01:29;;;;;;;5.25;3.70;;;;;;;10.91;100.00;98238.38;1786916;78;21023;-61
2022/10/19 06:04:02;;;;;;;6.05;4.05;;;;;;;10.93;100.00;98234.06;1803971;79;21472;-61
2022/10/19 06:06:29;;;;;;;5.92;4.40;;;;;;;10.94;100.00;98236.47;1788687;79;21048;-60
2022/10/19 06:08:57;;;;;;;6.70;4.80;;;;;;;10.98;100.00;98234.81;1795154;78;21048;-59
2022/10/19 06:11:29;;;;;;;7.47;4.25;;;;;;;11.00;100.00;98234.51;1797044;78;20978;-60
2022/10/19 06:13:58;;;;;;;6.87;4.80;;;;;;;11.02;100.00;98239.61;1796790;78;21079;-60
2022/10/19 06:16:28;;;;;;;5.50;4.55;;;;;;;11.04;100.00;98236.09;1804516;78;21463;-62
2022/10/19 06:18:59;;;;;;;5.55;4.72;;;;;;;11.05;100.00;98230.97;1810721;78;21458;-61
2022/10/19 06:21:29;;;;;;;5.53;5.03;;;;;;;11.12;100.00;98228.73;1803226;78;20976;-63
2022/10/19 06:24:01;;;;;;;6.80;5.50;;;;;;;11.18;100.00;98228.94;1798177;78;21032;-62
2022/10/19 06:26:30;;;;;;;7.60;6.10;;;;;;;11.22;100.00;98233.97;1797704;78;21494;-62
2022/10/19 06:28:59;;;;;;;6.33;5.62;;;;;;;11.23;100.00;98227.54;1801271;78;21700;-59
2022/10/19 06:31:32;;;;;;;6.33;5.65;;;;;;;11.26;100.00;98231.77;1796336;78;21095;-61
2022/10/19 06:33:59;;;;;;;7.17;6.45;;;;;;;11.31;100.00;98228.22;1797847;78;20924;-60
2022/10/19 06:36:28;;;;;;;6.92;6.33;;;;;;;11.36;100.00;98222.25;1804561;77;21070;-59
2022/10/19 06:38:55;;;;;;;6.97;6.25;;;;;;;11.40;100.00;98221.92;1789099;79;21043;-59
2022/10/19 06:41:25;;;;;;;6.75;6.05;;;;;;;11.45;100.00;98225.07;1793085;78;21114;-60
2022/10/19 06:43:53;;;;;;;8.40;6.47;;;;;;;11.46;100.00;98228.02;1797115;78;21041;-60
2022/10/19 06:46:24;;;;;;;7.33;6.62;;;;;;;11.46;100.00;98224.00;1803548;78;20959;-60
2022/10/19 06:48:56;;;;;;;8.63;5.55;;;;;;;11.49;100.00;98223.42;1810459;78;21047;-60
2022/10/19 06:51:28;;;;;;;7.72;6.53;;;;;;;11.48;100.00;98213.77;1801931;78;21494;-60
2022/10/19 06:54:09;;;;;;;7.70;6.92;;;;;;;11.48;100.00;98215.92;1774958;80;21155;-60
2022/10/19 06:56:43;;;;;;;7.37;6.58;;;;;;;11.53;100.00;98219.06;1730003;82;21140;-60
2022/10/19 06:59:16;;;;;;;8.63;6.50;;;;;;;11.57;100.00;98216.05;1748678;81;21061;-59
2022/10/19 07:01:48;;;;;;;8.35;6.78;;;;;;;11.59;100.00;98217.89;1742963;81;21686;-59
2022/10/19 07:04:19;;;;;;;8.58;7.20;;;;;;;11.60;100.00;98224.87;1779112;80;21098;-59
2022/10/19 07:06:52;;;;;;;7.15;6.47;;;;;;;11.57;100.00;98216.05;1764717;80;21103;-59
2022/10/19 07:09:25;;;;;;;6.62;5.90;;;;;;;11.60;100.00;98215.48;1776453;80;20984;-58
2022/10/19 07:12:09;;;;;;;7.35;6.65;;;;;;;11.71;100.00;98214.26;1777197;80;20898;-62
2022/10/19 07:14:40;;;;;;;7.58;6.87;;;;;;;11.84;100.00;98209.50;1780531;80;20996;-61
2022/10/19 07:17:12;;;;;;;8.63;7.75;;;;;;;11.94;100.00;98205.86;1730579;82;21097;-58
2022/10/19 07:19:44;;;;;;;8.55;6.58;;;;;;;11.94;100.00;98212.00;1750590;80;20934;-60
2022/10/19 07:22:23;;;;;;;7.95;6.37;;;;;;;11.97;100.00;98210.63;1752618;81;21430;-58
2022/10/19 07:24:54;;;;;;;10.35;7.00;;;;;;;11.99;100.00;98209.24;1751982;81;21036;-61
2022/10/19 07:27:24;;;;;;;7.90;7.10;;;;;;;12.01;100.00;98209.74;1737199;81;21019;-61
2022/10/19 07:29:56;;;;;;;10.98;7.90;;;;;;;12.04;100.00;98206.48;1761190;81;21063;-61
2022/10/19 07:32:29;;;;;;;7.53;6.72;;;;;;;12.05;99.62;98191.98;1761887;81;21597;-62
2022/10/19 07:35:06;;;;;;;8.45;7.22;;;;;;;12.11;99.87;98190.78;1761942;81;21068;-60
2022/10/19 07:37:41;;;;;;;9.25;7.60;;;;;;;12.11;97.48;98186.76;1762525;81;21649;-59
2022/10/19 07:40:12;;;;;;;8.05;7.17;;;;;;;12.09;97.58;98191.62;1766121;81;21124;-59
2022/10/19 07:42:44;;;;;;;7.58;6.78;;;;;;;12.06;97.38;98185.50;1767656;81;20953;-60
2022/10/19 07:45:23;;;;;;;8.80;6.87;;;;;;;12.02;97.70;98185.84;1754732;79;21009;-62
2022/10/19 07:47:55;;;;;;;7.08;6.17;;;;;;;12.02;97.77;98191.75;1805349;78;21021;-60
2022/10/19 07:50:28;;;;;;;7.70;6.50;;;;;;;12.01;98.08;98190.17;1782469;80;21572;-61
2022/10/19 07:53:02;;;;;;;9.45;7.20;;;;;;;12.03;97.87;98194.16;1795925;79;21384;-59
2022/10/19 07:55:40;;;;;;;7.35;6.55;;;;;;;12.03;97.38;98188.80;1784717;80;21034;-61
2022/10/19 07:58:12;;;;;;;10.63;6.97;;;;;;;12.04;96.45;98183.66;1785063;80;20954;-60
2022/10/19 08:00:40;;;;;;;8.98;6.95;;;;;;;12.03;95.77;98191.48;1766941;80;21099;-61
2022/10/19 08:03:07;;;;;;;8.68;6.95;;;;;;;12.01;95.16;98184.81;1776079;80;21474;-60
2022/10/19 08:05:34;;;;;;;9.25;6.70;;;;;;;12.03;94.71;98183.42;1768651;80;20923;-60
2022/10/19 08:08:01;;;;;;;8.13;6.28;;;;;;;12.06;94.28;98180.13;1759225;80;21066;-59
2022/10/19 08:10:28;;;;;;;6.95;5.42;;;;;;;12.17;93.66;98170.83;1767641;80;21176;-61
2022/10/19 08:12:54;;;;;;;7.60;5.15;;;;;;;12.22;91.37;98168.02;1764265;80;20990;-58
2022/10/19 08:15:25;;;;;;;8.25;5.70;;;;;;;12.21;91.49;98173.16;1768512;80;21074;-60
2022/10/19 08:17:52;;;;;;;4.33;3.90;;;;;;;12.21;91.45;98174.50;1768718;80;21002;-60
2022/10/19 08:20:21;;;;;;;5.70;4.12;;;;;;;12.19;90.11;98174.01;1769324;80;21225;-59
2022/10/19 08:22:48;;;;;;;4.83;4.10;;;;;;;12.12;89.60;98174.94;1768494;80;21233;-64
2022/10/19 08:25:15;;;;;;;5.40;4.37;;;;;;;12.05;90.06;98173.19;1762624;80;21058;-59
2022/10/19 08:27:42;;;;;;;7.15;4.33;;;;;;;12.10;89.59;98169.61;1764274;80;21576;-60
2022/10/19 08:30:10;;;;;;;5.10;3.90;;;;;;;12.23;89.47;98154.86;1762850;80;21062;-59
2022/10/19 08:32:36;;;;;;;6.22;4.47;;;;;;;12.44;88.68;98147.75;1752544;80;21529;-59
2022/10/19 08:35:05;;;;;;;8.23;4.20;;;;;;;12.55;88.42;98155.34;1742473;77;22100;-59
2022/10/19 08:40:24;;;;;;;5.15;4.30;;;;;;;12.57;85.43;98155.03;1720888;83;20955;-61
2022/10/19 08:43:02;;;;;;;7.07;4.37;;;;;;;12.53;85.31;98167.48;1726087;81;21059;-61
2022/10/19 08:45:45;;;;;;;4.92;4.00;;;;;;;12.52;82.28;98168.02;1717976;83;21082;-60
2022/10/19 08:48:26;;;;;;;6.00;4.85;;;;;;;12.63;81.87;98169.95;1713812;83;21259;-60
2022/10/19 08:50:54;;;;;;;7.00;4.95;;;;;;;12.71;80.64;98157.17;1757821;81;21125;-60
2022/10/19 08:53:40;;;;;;;6.17;4.20;;;;;;;12.68;78.18;98165.83;1694208;83;21113;-62
2022/10/19 08:56:35;;;;;;;7.00;4.15;;;;;;;12.67;79.04;98165.59;1713319;83;21102;-61
2022/10/19 08:59:19;;;;;;;4.57;3.67;;;;;;;12.86;78.38;98171.08;1757006;81;21125;-61
2022/10/19 09:02:17;;;;;;;5.83;4.22;;;;;;;13.07;74.20;98164.78;1756482;81;21638;-60
2022/10/19 09:04:51;;;;;;;5.30;3.45;;;;;;;13.04;72.59;98166.70;1719818;82;20889;-61
2022/10/19 09:07:36;;;;;;;5.00;3.55;;;;;;;12.91;70.12;98172.88;1714372;83;21102;-60
2022/10/19 09:10:17;;;;;;;5.10;3.10;;;;;;;12.75;70.99;98167.56;1714025;81;20903;-60
2022/10/19 09:12:54;;;;;;;4.90;2.67;;;;;;;12.68;70.18;98166.63;1725497;82;21101;-62
2022/10/19 09:15:38;;;;;;;5.97;2.90;;;;;;;12.70;71.10;98170.34;1718763;83;22151;-61
2022/10/19 09:18:20;;;;;;;7.65;3.00;;;;;;;12.77;70.80;98166.17;1730010;82;21063;-60
2022/10/19 09:20:50;;;;;;;4.22;2.52;;;;;;;12.91;69.19;98168.84;1725437;83;20992;-60
2022/10/19 09:23:32;;;;;;;6.80;2.47;;;;;;;13.04;67.72;98154.59;1731542;82;21008;-61
2022/10/19 09:26:17;;;;;;;6.35;2.30;;;;;;;13.13;65.65;98157.38;1761513;81;21011;-60
2022/10/19 09:29:14;;;;;;;7.12;2.33;;;;;;;13.04;61.47;98159.97;1739411;82;21412;-61
2022/10/19 09:31:44;;;;;;;3.42;1.90;;;;;;;12.96;63.18;98157.98;1721858;83;21043;-63
2022/10/19 09:34:34;;;;;;;4.28;1.90;;;;;;;12.98;62.58;98149.87;1693143;83;21055;-61
2022/10/19 09:37:01;;;;;;;5.80;2.15;;;;;;;13.03;60.37;98152.98;1717770;83;21012;-61
2022/10/19 09:39:30;;;;;;;5.12;2.10;;;;;;;13.01;59.93;98150.62;1749520;80;21635;-61
2022/10/19 09:42:29;;;;;;;7.80;2.02;;;;;;;12.90;59.94;98145.76;1712394;83;21677;-62
2022/10/19 09:45:02;;;;;;;5.00;1.90;;;;;;;12.84;61.25;98146.94;1687497;84;21739;-61
2022/10/19 09:47:38;;;;;;;3.83;1.67;;;;;;;12.81;61.45;98162.34;1746147;81;21496;-61
2022/10/19 09:50:25;;;;;;;;;;;;;;;12.81;62.29;98155.63;1751816;82;20935;-62
2022/10/19 09:53:04;;;;;;;6.12;2.25;;;;;;;12.81;61.01;98155.63;1751450;82;20248;-57
2022/10/19 09:55:37;;;;;;;8.28;2.33;;;;;;;12.76;61.12;98157.08;1714821;83;21110;-58
2022/10/19 09:58:18;;;;;;;4.15;1.95;;;;;;;12.74;60.41;98162.73;1748437;81;20922;-59
2022/10/19 10:00:54;;;;;;;4.95;1.90;;;;;;;12.64;60.24;98150.86;1750917;81;20997;-59
2022/10/19 10:03:42;;;;;;;6.65;1.80;;;;;;;12.55;61.44;98159.92;1749817;82;21115;-59
2022/10/19 10:06:16;;;;;;;5.65;2.17;;;;;;;12.57;61.99;98153.69;1749202;82;21084;-57
2022/10/19 10:08:56;;;;;;;3.80;1.90;;;;;;;12.58;62.18;98156.61;1748526;82;21424;-59
2022/10/19 10:11:37;;;;;;;4.35;1.80;;;;;;;12.52;62.30;98148.41;1681980;84;20992;-56
2022/10/19 10:14:29;;;;;;;6.35;1.98;;;;;;;12.50;62.95;98146.03;1683632;83;21034;-59
2022/10/19 10:17:07;;;;;;;6.00;1.67;;;;;;;12.43;61.41;98145.64;1704577;84;21035;-59
2022/10/19 10:19:39;;;;;;;4.42;1.67;;;;;;;12.35;61.60;98151.69;1751986;81;21025;-58
2022/10/19 10:22:14;;;;;;;5.90;1.75;;;;;;;12.29;61.71;98148.86;1753042;82;21182;-59
2022/10/19 10:24:45;;;;;;;6.97;2.02;;;;;;;12.27;61.61;98146.45;1721898;81;21098;-60
2022/10/19 10:27:18;;;;;;;5.45;1.52;;;;;;;12.27;60.40;98137.62;1709695;82;21052;-59
2022/10/19 10:29:55;;;;;;;7.67;1.80;;;;;;;12.29;60.32;98137.55;1742715;81;21509;-60
2022/10/19 10:32:22;;;;;;;7.60;1.50;;;;;;;12.36;60.72;98133.92;1748745;81;21515;-59
2022/10/19 10:35:03;;;;;;;4.05;1.60;;;;;;;12.45;58.87;98131.90;1685212;85;21138;-63
2022/10/19 10:37:43;;;;;;;5.17;1.50;;;;;;;12.52;57.46;98118.86;1709009;82;21023;-59
2022/10/19 10:40:30;;;;;;;5.83;1.40;;;;;;;12.61;56.14;98125.92;1759296;81;21043;-59
2022/10/19 10:43:07;;;;;;;5.05;1.35;;;;;;;12.70;54.99;98124.66;1755012;80;20928;-58
2022/10/19 10:45:46;;;;;;;6.40;2.00;;;;;;;12.67;54.73;98136.03;1706205;82;21479;-59
2022/10/19 10:48:30;;;;;;;6.05;1.77;;;;;;;12.56;54.76;98134.63;1728607;82;21277;-59
2022/10/19 10:50:59;;;;;;;8.63;1.40;;;;;;;12.47;55.27;98132.39;1729309;83;21078;-57
2022/10/19 10:53:42;;;;;;;5.60;1.50;;;;;;;12.37;55.95;98136.06;1697686;83;21524;-58
2022/10/19 10:56:27;;;;;;;4.50;1.50;;;;;;;12.30;56.44;98127.06;1722342;83;21044;-59
2022/10/19 10:59:07;;;;;;;8.55;1.50;;;;;;;12.22;56.39;98117.00;1736715;82;21563;-58
2022/10/19 11:01:41;;;;;;;4.53;1.70;;;;;;;12.19;57.16;98116.27;1709411;82;21460;-60
2022/10/19 11:04:19;;;;;;;4.42;1.50;;;;;;;12.14;57.14;98113.69;1735795;82;21382;-59
2022/10/19 11:06:52;;;;;;;4.35;1.50;;;;;;;12.07;57.78;98114.62;1723186;83;20972;-59
2022/10/19 11:09:39;;;;;;;5.17;1.70;;;;;;;11.97;58.44;98116.13;1729720;81;21094;-57
2022/10/19 11:12:14;;;;;;;4.47;1.70;;;;;;;11.89;58.89;98123.55;1761352;81;21035;-57
2022/10/19 11:14:52;;;;;;;5.45;1.72;;;;;;;11.81;59.28;98124.20;1762757;81;20967;-59
2022/10/19 11:17:23;;;;;;;5.53;1.60;;;;;;;11.72;60.22;98115.24;1761620;81;20888;-59
2022/10/19 11:19:52;;;;;;;5.87;1.72;;;;;;;11.67;61.15;98109.92;1757832;81;20935;-60
2022/10/19 11:22:36;;;;;;;3.52;1.80;;;;;;;11.67;61.77;98101.88;1762961;81;21497;-59
2022/10/19 11:25:36;;;;;;;4.03;1.80;;;;;;;11.70;62.06;98099.98;1708961;81;21449;-59
2022/10/19 11:28:26;;;;;;;4.15;1.67;;;;;;;11.79;62.65;98095.53;1709296;81;21151;-60
2022/10/19 11:31:17;;;;;;;3.60;1.60;;;;;;;11.96;62.88;98105.16;1762833;81;21011;-59
2022/10/19 11:33:59;;;;;;;3.62;1.72;;;;;;;12.11;62.62;98098.70;1759833;81;20927;-57
2022/10/19 11:36:51;;;;;;;4.45;1.50;;;;;;;12.22;62.69;98107.60;1750912;81;21087;-58
2022/10/19 11:39:44;;;;;;;6.92;1.67;;;;;;;12.29;61.57;98096.49;1755184;80;21121;-59
2022/10/19 11:42:48;;;;;;;5.97;1.30;;;;;;;12.28;61.23;98097.03;1722960;82;21122;-57
2022/10/19 11:45:41;;;;;;;4.92;1.85;;;;;;;12.26;61.38;98093.05;1706241;82;20967;-59
2022/10/19 11:48:33;;;;;;;4.12;1.45;;;;;;;12.23;61.21;98085.58;1712265;82;20943;-59
2022/10/19 11:51:41;;;;;;;4.45;1.65;;;;;;;12.20;61.21;98082.94;1719371;82;20953;-59
2022/10/19 11:54:38;;;;;;;5.47;1.72;;;;;;;12.21;61.74;98064.41;1747243;81;21537;-58
2022/10/19 11:57:19;;;;;;;3.85;1.40;;;;;;;12.21;61.32;98077.03;1751965;81;21801;-58
2022/10/19 12:00:14;;;;;;;3.95;1.42;;;;;;;12.18;61.06;98073.05;1755366;81;21549;-58
2022/10/19 12:02:59;;;;;;;6.00;1.77;;;;;;;12.13;61.80;98063.75;1715651;82;20959;-58